Portada
METAR-TAF:

METAR-TAF

Aeroports :

Aarhus, Dinamarca

latitud: 56-18N, longitud: 010-37E, altitud: 23 m

Observació

L'informe es va fer fa 17 minuts, a les 10:20 UTC
Vent 5 kt del Sud/Sud-Est, variant entre Est i Sud-Oest
Temperatura 21°C
Pressió 1014 hPa
Visibilitat 10 km o més

METAR: EKAH 051020Z AUTO 15005KT 100V230 9999 FEW032/// 21/// Q1014

Hora: 12:37 (10:37 UTC)

Pronòstic

L'informe es va fer fa 5 hores i 31 minuts, a les 05:06 UTC
Pronòstic vàlid del 05 a les 06 UTC al 06 a les 06 UTC
Vent 5 kt del Est
Visibilitat 10 km o més
sense núvols per sota de 1500 mi sense presència de cumulonimbus.

TAF: EKAH 050506Z 0506/0606 10005KT CAVOK

Observacions i pronòstics meteorològics de més de 4000 aeroports (METAR i TAF).

Les estacions disponibles són els punts grocs i vermells al mapa.

Posi el ratolí al punt desitjat per veure el nom de l'estació.

Feu clic per veure les observacions i els pronòstics meteorològics.

Per canviar el mapa: feu clic els botons verds amb una creu de color negre per apropar; al botó verd amb un guió per allunyar la imatge; o en les fletxes verdes per a mapes adjacents.


METAR-TAF: